createdAt,value
2023-08-11T00:02:59.628Z,75.10
2023-08-11T00:08:06.770Z,75.10
2023-08-11T00:13:13.910Z,75.20
2023-08-11T00:18:17.379Z,75.50
2023-08-11T00:23:22.208Z,75.80
2023-08-11T00:28:28.300Z,75.80
2023-08-11T00:33:31.954Z,76.20
2023-08-11T00:38:40.704Z,76.00
2023-08-11T00:43:44.284Z,75.90
2023-08-11T00:48:52.129Z,76.00
2023-08-11T00:53:58.786Z,75.90
2023-08-11T00:59:03.345Z,76.20
2023-08-11T01:04:08.281Z,76.00
2023-08-11T01:09:29.408Z,76.10
2023-08-11T01:14:45.078Z,76.00
2023-08-11T01:19:49.295Z,76.00
2023-08-11T01:24:54.567Z,76.00
2023-08-11T01:29:58.033Z,76.90
2023-08-11T01:35:01.476Z,76.30
2023-08-11T01:40:11.865Z,76.40
2023-08-11T01:45:17.086Z,76.20
2023-08-11T01:50:21.995Z,76.00
2023-08-11T01:55:29.987Z,75.90
2023-08-11T02:00:33.747Z,75.80
2023-08-11T02:05:37.925Z,75.70
2023-08-11T02:10:42.724Z,75.70
2023-08-11T02:15:46.222Z,75.90
2023-08-11T02:20:49.687Z,75.90
2023-08-11T02:25:54.525Z,75.90
2023-08-11T02:30:57.994Z,75.90
2023-08-11T02:36:01.466Z,75.70
2023-08-11T02:41:06.332Z,75.50
2023-08-11T02:46:12.319Z,75.70
2023-08-11T02:51:15.850Z,75.30
2023-08-11T02:56:20.675Z,75.60
2023-08-11T03:01:24.184Z,75.60
2023-08-11T03:06:29.028Z,75.70
2023-08-11T03:11:34.022Z,75.80
2023-08-11T03:16:37.503Z,75.80
2023-08-11T03:21:41.624Z,75.80
2023-08-11T03:26:46.468Z,75.80
2023-08-11T03:31:51.216Z,76.00
2023-08-11T03:36:55.144Z,76.20
2023-08-11T03:42:00.037Z,76.20
2023-08-11T03:47:06.612Z,75.80
2023-08-11T03:52:10.480Z,75.60
2023-08-11T03:57:17.224Z,75.60
2023-08-11T04:02:21.008Z,75.50
2023-08-11T04:07:24.542Z,75.30
2023-08-11T04:12:29.469Z,75.30
2023-08-11T04:17:34.973Z,75.20
2023-08-11T04:22:39.509Z,75.10
2023-08-11T04:27:46.082Z,75.20
2023-08-11T04:32:51.871Z,75.10
2023-08-11T04:37:55.595Z,75.20
2023-08-11T04:43:03.621Z,75.10
2023-08-11T04:48:12.575Z,75.10
2023-08-11T04:53:22.238Z,75.00
2023-08-11T04:58:27.408Z,75.00
2023-08-11T05:03:33.784Z,75.10
2023-08-11T05:08:37.922Z,75.00
2023-08-11T05:13:42.870Z,75.10
2023-08-11T05:18:46.348Z,75.20
2023-08-11T05:23:49.864Z,75.20
2023-08-11T05:28:54.769Z,75.20
2023-08-11T05:33:58.264Z,75.40
2023-08-11T05:39:01.725Z,75.50
2023-08-11T05:44:07.670Z,75.50
2023-08-11T05:49:11.181Z,75.60
2023-08-11T05:54:14.631Z,75.80
2023-08-11T05:59:19.492Z,75.50
2023-08-11T06:04:22.948Z,75.20
2023-08-11T06:09:26.417Z,74.20
2023-08-11T06:14:31.252Z,73.60
2023-08-11T06:19:34.665Z,73.20
2023-08-11T06:24:38.167Z,73.10
2023-08-11T06:29:43.195Z,74.00
2023-08-11T06:34:46.661Z,73.30
2023-08-11T06:39:50.961Z,71.40
2023-08-11T06:44:55.802Z,72.20
2023-08-11T06:49:59.473Z,72.20
2023-08-11T06:55:04.336Z,72.50
2023-08-11T07:00:11.451Z,73.30
2023-08-11T07:05:15.132Z,72.30
2023-08-11T07:10:18.830Z,72.40
2023-08-11T07:15:24.005Z,72.30
2023-08-11T07:20:27.615Z,72.50
2023-08-11T07:25:31.068Z,72.60
2023-08-11T07:30:37.323Z,72.70
2023-08-11T07:35:40.898Z,72.80
2023-08-11T07:40:44.482Z,72.80
2023-08-11T07:45:49.280Z,72.90
2023-08-11T07:50:53.051Z,72.80
2023-08-11T07:55:56.553Z,72.80
2023-08-11T08:01:02.809Z,72.90
2023-08-11T08:06:07.632Z,73.70
2023-08-11T08:11:11.082Z,73.10
2023-08-11T08:16:16.239Z,73.10
2023-08-11T08:21:19.717Z,73.20
2023-08-11T08:26:23.138Z,73.10
2023-08-11T08:31:28.112Z,73.10
2023-08-11T08:36:31.579Z,73.20
2023-08-11T08:41:39.897Z,73.10
2023-08-11T08:46:45.491Z,73.20
2023-08-11T08:51:49.409Z,73.10
2023-08-11T08:56:54.789Z,73.20
2023-08-11T09:02:01.009Z,73.10
2023-08-11T09:07:05.998Z,73.20
2023-08-11T09:12:10.436Z,73.20
2023-08-11T09:17:15.624Z,73.20
2023-08-11T09:22:19.072Z,73.20
2023-08-11T09:27:23.184Z,73.20
2023-08-11T09:32:28.290Z,73.10
2023-08-11T09:37:32.800Z,73.20
2023-08-11T09:42:36.317Z,73.10
2023-08-11T09:47:41.249Z,73.10
2023-08-11T09:52:46.401Z,73.00
2023-08-11T09:57:51.203Z,72.90
2023-08-11T10:03:04.145Z,73.00
2023-08-11T10:08:14.179Z,72.90
2023-08-11T10:13:23.842Z,72.90
2023-08-11T10:18:29.746Z,72.90
2023-08-11T10:23:34.452Z,72.90
2023-08-11T10:28:39.001Z,72.90
2023-08-11T10:33:51.833Z,72.90
2023-08-11T10:39:04.722Z,72.80
2023-08-11T10:44:08.420Z,72.80
2023-08-11T10:49:35.167Z,72.90
2023-08-11T10:54:38.669Z,72.90
2023-08-11T10:59:42.093Z,72.80
2023-08-11T11:04:47.081Z,72.80
2023-08-11T11:09:50.572Z,72.80
2023-08-11T11:14:54.003Z,72.70
2023-08-11T11:20:01.033Z,72.70
2023-08-11T11:25:07.918Z,72.70
2023-08-11T11:30:13.418Z,72.60
2023-08-11T11:35:18.947Z,72.70
2023-08-11T11:40:22.513Z,72.70
2023-08-11T11:45:27.402Z,72.60
2023-08-11T11:50:32.335Z,72.60
2023-08-11T11:55:46.373Z,72.50
2023-08-11T12:00:50.128Z,72.50
2023-08-11T12:05:56.052Z,72.60
2023-08-11T12:11:02.233Z,72.50
2023-08-11T12:16:05.723Z,72.60
2023-08-11T12:21:10.959Z,72.60
2023-08-11T12:26:14.387Z,72.60
2023-08-11T12:31:17.974Z,72.50
2023-08-11T12:36:22.777Z,72.60
2023-08-11T12:41:26.222Z,72.50
2023-08-11T12:46:30.517Z,72.50
2023-08-11T12:51:36.257Z,72.50
2023-08-11T12:56:39.773Z,72.50
2023-08-11T13:01:43.448Z,72.60
2023-08-11T13:06:48.299Z,72.60
2023-08-11T13:11:51.885Z,72.60
2023-08-11T13:16:55.306Z,72.50
2023-08-11T13:22:05.573Z,72.50
2023-08-11T13:27:10.240Z,72.50
2023-08-11T13:32:13.738Z,72.50
2023-08-11T13:37:18.625Z,72.60
2023-08-11T13:42:22.167Z,72.60
2023-08-11T13:47:27.119Z,72.60
2023-08-11T13:52:32.019Z,72.70
2023-08-11T13:57:35.741Z,72.70
2023-08-11T14:02:39.337Z,72.70
2023-08-11T14:07:44.245Z,72.70
2023-08-11T14:12:47.754Z,72.70
2023-08-11T14:17:51.294Z,72.70
2023-08-11T14:22:56.131Z,72.70
2023-08-11T14:27:59.654Z,72.70
2023-08-11T14:33:03.226Z,73.50
2023-08-11T14:38:08.177Z,72.80
2023-08-11T14:43:13.236Z,72.90
2023-08-11T14:48:18.658Z,73.00
2023-08-11T14:53:24.819Z,72.90
2023-08-11T14:58:29.043Z,72.90
2023-08-11T15:03:32.607Z,72.90
2023-08-11T15:08:37.658Z,72.90
2023-08-11T15:13:41.219Z,72.90
2023-08-11T15:18:44.651Z,72.90
2023-08-11T15:23:49.591Z,73.00
2023-08-11T15:28:53.288Z,73.10
2023-08-11T15:33:56.793Z,73.00
2023-08-11T15:39:01.689Z,73.10
2023-08-11T15:44:05.941Z,73.20
2023-08-11T15:49:09.384Z,73.20
2023-08-11T15:54:14.191Z,73.20
2023-08-11T15:59:17.847Z,73.30
2023-08-11T16:04:21.382Z,73.40
2023-08-11T16:09:26.388Z,73.40
2023-08-11T16:14:29.825Z,73.50
2023-08-11T16:19:35.955Z,73.60
2023-08-11T16:24:40.949Z,73.80
2023-08-11T16:29:44.370Z,74.00
2023-08-11T16:34:47.865Z,74.10
2023-08-11T16:39:52.689Z,74.20
2023-08-11T16:44:56.131Z,75.20
2023-08-11T16:49:59.647Z,74.50
2023-08-11T16:55:04.840Z,74.60
2023-08-11T17:00:12.081Z,74.70
2023-08-11T17:05:15.612Z,74.80
2023-08-11T17:10:20.516Z,74.90
2023-08-11T17:15:24.711Z,75.00
2023-08-11T17:20:28.194Z,75.00
2023-08-11T17:25:33.008Z,75.10
2023-08-11T17:30:36.449Z,75.10
2023-08-11T17:35:40.477Z,75.20
2023-08-11T17:40:45.300Z,75.20
2023-08-11T17:45:48.962Z,75.10
2023-08-11T17:50:52.510Z,75.20
2023-08-11T17:55:57.410Z,75.10
2023-08-11T18:01:00.879Z,75.10
2023-08-11T18:06:04.429Z,75.20
2023-08-11T18:11:09.238Z,75.20
2023-08-11T18:16:12.740Z,75.10
2023-08-11T18:21:21.036Z,75.10
2023-08-11T18:26:26.478Z,75.10
2023-08-11T18:31:30.347Z,75.00
2023-08-11T18:36:33.873Z,75.00
2023-08-11T18:41:39.028Z,75.10
2023-08-11T18:46:42.549Z,75.70
2023-08-11T18:51:46.462Z,75.00
2023-08-11T18:56:51.327Z,75.00
2023-08-11T19:01:54.887Z,75.00
2023-08-11T19:06:58.523Z,75.00
2023-08-11T19:12:03.361Z,75.00
2023-08-11T19:17:06.930Z,75.00
2023-08-11T19:22:10.968Z,75.10
2023-08-11T19:27:16.128Z,75.00
2023-08-11T19:32:19.608Z,75.00
2023-08-11T19:37:23.037Z,75.00
2023-08-11T19:42:27.932Z,75.00
2023-08-11T19:47:31.498Z,75.00
2023-08-11T19:52:35.809Z,74.90
2023-08-11T19:57:40.695Z,74.90
2023-08-11T20:02:44.215Z,75.20
2023-08-11T20:07:47.755Z,75.50
2023-08-11T20:12:52.628Z,75.50
2023-08-11T20:17:56.290Z,75.70
2023-08-11T20:23:00.123Z,77.50
2023-08-11T20:28:06.037Z,77.20
2023-08-11T20:33:10.428Z,77.40
2023-08-11T20:38:14.140Z,77.80
2023-08-11T20:43:18.921Z,77.60
2023-08-11T20:48:22.874Z,77.80
2023-08-11T20:53:26.418Z,78.00
2023-08-11T20:58:31.446Z,78.00
2023-08-11T21:03:34.942Z,78.10
2023-08-11T21:08:48.016Z,78.00
2023-08-11T21:13:52.833Z,78.20
2023-08-11T21:18:56.851Z,78.10
2023-08-11T21:24:00.305Z,78.10
2023-08-11T21:29:05.653Z,79.00
2023-08-11T21:34:11.102Z,79.60
2023-08-11T21:39:14.579Z,80.00
2023-08-11T21:44:20.201Z,80.20
2023-08-11T21:49:23.927Z,80.30
2023-08-11T21:54:27.393Z,80.50
2023-08-11T21:59:32.492Z,80.50
2023-08-11T22:04:37.987Z,80.50
2023-08-11T22:09:42.723Z,80.60
2023-08-11T22:14:47.674Z,80.70
2023-08-11T22:19:53.285Z,80.50
2023-08-11T22:25:01.258Z,80.40
2023-08-11T22:30:09.512Z,80.60
2023-08-11T22:35:13.761Z,80.60
2023-08-11T22:40:17.411Z,80.60
2023-08-11T22:45:22.406Z,80.50
2023-08-11T22:50:25.849Z,80.30
2023-08-11T22:55:32.861Z,80.30
2023-08-11T23:00:37.636Z,80.20
2023-08-11T23:05:41.095Z,80.10
2023-08-11T23:10:44.592Z,80.20
2023-08-11T23:15:49.732Z,80.20
2023-08-11T23:20:53.227Z,80.00
2023-08-11T23:25:56.765Z,79.90
2023-08-11T23:31:01.675Z,80.20
2023-08-11T23:36:05.949Z,80.10
2023-08-11T23:41:09.523Z,79.80
2023-08-11T23:46:15.653Z,79.60
2023-08-11T23:51:19.287Z,79.50
2023-08-11T23:56:22.820Z,79.60
